Time;durP1;ratioP1;P1;durP2;ratioP2;P2;SDS_P1;SDS_P2;PMS_P1;PMS_P2;Temp;Humidity;BMP_temperature;BMP_pressure;BME280_temperature;BME280_humidity;BME280_pressure;Samples;Min_cycle;Max_cycle;Signal;HPM_P1;HPM_P2
2024/04/25 00:00:55;;;;;;;7.00;3.67;;;;;;;;;;5480299;26;20402;-67
2024/04/25 00:03:21;;;;;;;4.82;3.53;;;;;;;;;;5480455;26;20026;-66
2024/04/25 00:05:47;;;;;;;4.70;3.22;;;;;;;;;;5479145;26;20026;-66
2024/04/25 00:08:13;;;;;;;5.32;3.28;;;;;;;;;;5481782;21;20067;-62
2024/04/25 00:10:40;;;;;;;7.10;4.30;;;;;;;;;;5404926;26;20322;-63
2024/04/25 00:13:06;;;;;;;6.63;3.60;;;;;;;;;;5412453;26;20018;-60
2024/04/25 00:15:33;;;;;;;6.15;3.30;;;;;;;;;;5414284;26;20063;-60
2024/04/25 00:17:59;;;;;;;6.18;3.75;;;;;;;;;;5412087;26;20039;-61
2024/04/25 00:20:25;;;;;;;6.43;3.72;;;;;;;;;;5414392;26;20407;-61
2024/04/25 00:22:51;;;;;;;5.72;3.75;;;;;;;;;;5420109;26;20432;-61
2024/04/25 00:25:18;;;;;;;7.40;3.70;;;;;;;;;;5409997;26;20059;-61
2024/04/25 00:27:44;;;;;;;8.02;3.28;;;;;;;;;;5412337;26;20024;-61
2024/04/25 00:30:10;;;;;;;6.78;4.03;;;;;;;;;;5413885;26;20043;-61
2024/04/25 00:32:36;;;;;;;6.05;3.55;;;;;;;;;;5413790;26;20032;-60
2024/04/25 00:35:02;;;;;;;5.22;3.70;;;;;;;;;;5415021;26;20020;-60
2024/04/25 00:37:29;;;;;;;6.30;3.50;;;;;;;;;;5414885;26;20022;-60
2024/04/25 00:39:55;;;;;;;5.00;3.40;;;;;;;;;;5415405;26;20044;-60
2024/04/25 00:42:22;;;;;;;8.50;3.92;;;;;;;;;;5412656;26;20378;-60
2024/04/25 00:44:49;;;;;;;8.45;3.65;;;;;;;;;;5414226;26;20040;-60
2024/04/25 00:47:18;;;;;;;6.28;3.80;;;;;;;;;;5414941;26;20036;-60
2024/04/25 00:49:48;;;;;;;6.47;4.07;;;;;;;;;;5413939;26;20039;-60
2024/04/25 00:52:16;;;;;;;5.85;3.85;;;;;;;;;;5410956;26;20027;-60
2024/04/25 00:54:42;;;;;;;6.03;3.92;;;;;;;;;;5413495;26;20031;-60
2024/04/25 00:57:10;;;;;;;5.57;3.70;;;;;;;;;;5412640;26;20040;-60
2024/04/25 00:59:43;;;;;;;6.63;3.72;;;;;;;;;;5378427;26;20023;-60
2024/04/25 01:02:10;;;;;;;6.32;3.90;;;;;;;;;;5411923;26;20027;-60
2024/04/25 01:04:36;;;;;;;8.35;4.15;;;;;;;;;;5382781;26;20024;-62
2024/04/25 01:07:03;;;;;;;8.30;4.10;;;;;;;;;;5416062;26;20032;-63
2024/04/25 01:09:30;;;;;;;6.55;3.92;;;;;;;;;;5416036;26;20027;-64
2024/04/25 01:11:57;;;;;;;6.90;3.80;;;;;;;;;;5415538;26;20027;-64
2024/04/25 01:14:23;;;;;;;7.38;3.97;;;;;;;;;;5408689;26;20024;-64
2024/04/25 01:16:50;;;;;;;7.32;4.25;;;;;;;;;;5420500;26;20022;-62
2024/04/25 01:19:17;;;;;;;6.75;3.95;;;;;;;;;;5409616;26;20525;-63
2024/04/25 01:21:45;;;;;;;7.10;4.03;;;;;;;;;;5411578;26;20047;-64
2024/04/25 01:24:13;;;;;;;5.45;3.67;;;;;;;;;;5412679;26;20031;-64
2024/04/25 01:26:40;;;;;;;6.70;3.55;;;;;;;;;;5405288;26;20387;-64
2024/04/25 01:29:12;;;;;;;8.85;4.55;;;;;;;;;;5422930;26;20027;-64
2024/04/25 01:31:38;;;;;;;6.78;4.35;;;;;;;;;;5413245;26;20032;-64
2024/04/25 01:34:04;;;;;;;7.50;3.78;;;;;;;;;;5413424;26;20024;-64
2024/04/25 01:36:30;;;;;;;7.45;4.53;;;;;;;;;;5412683;26;20023;-64
2024/04/25 01:38:57;;;;;;;8.60;4.40;;;;;;;;;;5370803;26;20027;-64
2024/04/25 01:41:23;;;;;;;7.75;4.30;;;;;;;;;;5413151;26;20036;-64
2024/04/25 01:43:49;;;;;;;6.97;4.10;;;;;;;;;;5410407;26;20039;-62
2024/04/25 01:46:15;;;;;;;7.75;4.45;;;;;;;;;;5413527;26;20615;-64
2024/04/25 01:48:45;;;;;;;6.43;3.80;;;;;;;;;;5411790;26;20044;-64
2024/04/25 01:51:11;;;;;;;6.13;4.15;;;;;;;;;;5406061;26;20023;-64
2024/04/25 01:53:37;;;;;;;6.40;3.78;;;;;;;;;;5412795;26;20032;-65
2024/04/25 01:56:03;;;;;;;8.00;4.32;;;;;;;;;;5408737;26;20612;-64
2024/04/25 01:58:30;;;;;;;6.28;3.92;;;;;;;;;;5413661;26;20411;-64
2024/04/25 02:00:56;;;;;;;9.18;4.22;;;;;;;;;;5414492;26;20031;-64
2024/04/25 02:03:22;;;;;;;7.43;4.35;;;;;;;;;;5380772;26;20043;-65
2024/04/25 02:05:48;;;;;;;6.57;4.00;;;;;;;;;;5407814;26;20031;-64
2024/04/25 02:08:14;;;;;;;5.18;3.90;;;;;;;;;;5406094;26;20027;-64
2024/04/25 02:10:40;;;;;;;6.43;4.03;;;;;;;;;;5383666;26;20487;-64
2024/04/25 02:13:07;;;;;;;7.97;4.05;;;;;;;;;;5414014;26;20031;-64
2024/04/25 02:15:33;;;;;;;6.43;4.00;;;;;;;;;;5409246;26;20035;-64
2024/04/25 02:17:59;;;;;;;6.05;4.05;;;;;;;;;;5412272;26;20031;-64
2024/04/25 02:26:02;;;;;;;6.32;4.03;;;;;;;;;;5410499;26;20530;-64
2024/04/25 02:28:29;;;;;;;8.80;3.95;;;;;;;;;;5422429;26;20031;-64
2024/04/25 02:30:55;;;;;;;6.90;4.38;;;;;;;;;;5413611;26;20051;-64
2024/04/25 02:33:21;;;;;;;7.50;4.05;;;;;;;;;;5413610;26;20028;-64
2024/04/25 02:35:47;;;;;;;7.47;4.15;;;;;;;;;;5404345;26;20498;-64
2024/04/25 02:38:13;;;;;;;7.43;4.22;;;;;;;;;;5410458;26;20020;-61
2024/04/25 02:40:42;;;;;;;7.20;4.07;;;;;;;;;;5412516;26;20498;-64
2024/04/25 02:43:09;;;;;;;5.40;3.70;;;;;;;;;;5410794;26;20031;-64
2024/04/25 02:45:35;;;;;;;7.18;4.28;;;;;;;;;;5414629;26;20031;-64
2024/04/25 02:48:01;;;;;;;10.27;4.40;;;;;;;;;;5410268;26;20047;-63
2024/04/25 02:50:27;;;;;;;8.35;4.40;;;;;;;;;;5408112;26;20022;-63
2024/04/25 02:52:53;;;;;;;10.32;4.25;;;;;;;;;;5412097;26;20020;-64
2024/04/25 02:55:19;;;;;;;7.70;4.18;;;;;;;;;;5413760;26;20032;-64
2024/04/25 02:57:46;;;;;;;9.73;4.30;;;;;;;;;;5412266;26;20036;-64
2024/04/25 03:00:12;;;;;;;7.75;4.22;;;;;;;;;;5413433;26;20035;-64
2024/04/25 03:02:39;;;;;;;7.45;4.20;;;;;;;;;;5411929;26;20495;-64
2024/04/25 03:05:05;;;;;;;8.77;4.60;;;;;;;;;;5403539;26;20482;-64
2024/04/25 03:07:33;;;;;;;7.25;4.43;;;;;;;;;;5414184;26;20023;-64
2024/04/25 03:09:59;;;;;;;10.48;4.50;;;;;;;;;;5414979;26;20032;-60
2024/04/25 03:12:27;;;;;;;7.55;4.05;;;;;;;;;;5412224;26;20024;-63
2024/04/25 03:14:53;;;;;;;9.30;4.20;;;;;;;;;;5413330;26;20032;-64
2024/04/25 03:17:19;;;;;;;6.70;3.50;;;;;;;;;;5411094;26;20032;-64
2024/04/25 03:19:45;;;;;;;8.27;4.25;;;;;;;;;;5408627;26;20051;-62
2024/04/25 03:22:11;;;;;;;7.35;4.53;;;;;;;;;;5409611;26;20039;-64
2024/04/25 03:24:37;;;;;;;7.90;4.28;;;;;;;;;;5412313;26;20382;-64
2024/04/25 03:27:04;;;;;;;6.07;3.92;;;;;;;;;;5420571;26;20027;-64
2024/04/25 03:29:30;;;;;;;8.45;4.18;;;;;;;;;;5409786;26;20028;-66
2024/04/25 03:31:56;;;;;;;6.30;3.97;;;;;;;;;;5422094;26;20032;-65
2024/04/25 03:34:22;;;;;;;6.85;3.90;;;;;;;;;;5409773;26;20027;-65
2024/04/25 03:36:50;;;;;;;6.13;4.18;;;;;;;;;;5411721;26;20040;-64
2024/04/25 03:39:20;;;;;;;8.00;4.10;;;;;;;;;;5407201;26;20031;-64
2024/04/25 03:41:47;;;;;;;8.45;4.25;;;;;;;;;;5412245;26;20047;-64
2024/04/25 03:44:14;;;;;;;7.07;4.00;;;;;;;;;;5410115;26;20051;-64
2024/04/25 03:46:40;;;;;;;6.28;3.78;;;;;;;;;;5402658;26;20392;-64
2024/04/25 03:49:08;;;;;;;6.72;4.00;;;;;;;;;;5409152;26;20032;-59
2024/04/25 03:51:35;;;;;;;5.82;3.85;;;;;;;;;;5408567;26;20066;-59
2024/04/25 03:54:02;;;;;;;8.27;3.92;;;;;;;;;;5411969;26;20491;-61
2024/04/25 03:56:28;;;;;;;9.50;4.28;;;;;;;;;;5410162;26;20040;-62
2024/04/25 03:58:54;;;;;;;7.32;4.00;;;;;;;;;;5411367;26;20035;-61
2024/04/25 04:01:21;;;;;;;7.18;4.53;;;;;;;;;;5409626;26;20036;-62
2024/04/25 04:03:47;;;;;;;7.63;4.20;;;;;;;;;;5412963;26;20035;-61
2024/04/25 04:06:17;;;;;;;7.55;4.38;;;;;;;;;;5416054;26;20062;-61
2024/04/25 04:08:43;;;;;;;11.98;5.72;;;;;;;;;;5414028;26;20495;-61
2024/04/25 04:11:09;;;;;;;7.93;4.40;;;;;;;;;;5410704;26;20032;-61
2024/04/25 04:13:35;;;;;;;8.52;4.18;;;;;;;;;;5418832;26;20024;-61
2024/04/25 04:16:09;;;;;;;8.52;4.47;;;;;;;;;;5412113;26;20384;-60
2024/04/25 04:18:35;;;;;;;6.18;3.72;;;;;;;;;;5422396;26;20027;-60
2024/04/25 04:21:01;;;;;;;7.82;4.30;;;;;;;;;;5413745;26;20488;-60
2024/04/25 04:23:28;;;;;;;8.23;4.10;;;;;;;;;;5413361;26;20386;-61
2024/04/25 04:25:54;;;;;;;7.47;4.55;;;;;;;;;;5414537;26;20035;-61
2024/04/25 04:28:20;;;;;;;9.32;4.85;;;;;;;;;;5423918;26;20039;-61
2024/04/25 04:30:47;;;;;;;10.93;4.47;;;;;;;;;;5413292;26;20036;-59
2024/04/25 04:33:13;;;;;;;8.25;4.22;;;;;;;;;;5416319;26;20368;-60
2024/04/25 04:35:39;;;;;;;7.18;4.40;;;;;;;;;;5414610;26;20023;-60
2024/04/25 04:38:05;;;;;;;8.93;4.28;;;;;;;;;;5414266;26;20032;-60
2024/04/25 04:40:31;;;;;;;6.90;4.35;;;;;;;;;;5415236;26;20031;-61
2024/04/25 04:42:58;;;;;;;11.27;6.30;;;;;;;;;;5412509;26;20039;-60
2024/04/25 04:45:24;;;;;;;8.45;5.07;;;;;;;;;;5413470;26;20391;-60
2024/04/25 04:47:51;;;;;;;9.35;4.60;;;;;;;;;;5410491;26;20048;-60
2024/04/25 04:50:19;;;;;;;7.63;4.38;;;;;;;;;;5412797;26;20100;-61
2024/04/25 04:52:46;;;;;;;9.07;4.45;;;;;;;;;;5413300;26;20031;-60
2024/04/25 04:55:12;;;;;;;12.95;4.72;;;;;;;;;;5409323;26;20019;-60
2024/04/25 04:57:38;;;;;;;7.00;4.93;;;;;;;;;;5414364;26;20020;-60
2024/04/25 05:00:05;;;;;;;7.70;4.68;;;;;;;;;;5414991;26;20368;-59
2024/04/25 05:02:31;;;;;;;6.85;4.03;;;;;;;;;;5412730;26;20024;-58
2024/04/25 05:04:57;;;;;;;7.03;4.30;;;;;;;;;;5414599;26;20050;-60
2024/04/25 05:07:24;;;;;;;6.15;3.22;;;;;;;;;;5415633;26;20023;-60
2024/04/25 05:09:50;;;;;;;7.55;4.70;;;;;;;;;;5413492;26;20023;-60
2024/04/25 05:12:16;;;;;;;6.63;4.57;;;;;;;;;;5414270;26;20020;-60
2024/04/25 05:14:42;;;;;;;5.78;4.50;;;;;;;;;;5407971;26;20043;-60
2024/04/25 05:17:08;;;;;;;8.82;4.50;;;;;;;;;;5412947;26;20511;-62
2024/04/25 05:19:34;;;;;;;10.55;4.40;;;;;;;;;;5409576;26;20027;-61
2024/04/25 05:22:00;;;;;;;9.02;5.50;;;;;;;;;;5410196;26;20032;-58
2024/04/25 05:24:26;;;;;;;10.00;5.10;;;;;;;;;;5418307;26;20028;-60
2024/04/25 05:26:52;;;;;;;7.80;4.65;;;;;;;;;;5416137;26;20032;-60
2024/04/25 05:29:19;;;;;;;7.28;4.43;;;;;;;;;;5408063;26;20027;-60
2024/04/25 05:31:45;;;;;;;9.00;5.00;;;;;;;;;;5410378;26;20534;-60
2024/04/25 05:34:11;;;;;;;9.57;4.53;;;;;;;;;;5414032;26;20035;-61
2024/04/25 05:36:37;;;;;;;12.10;5.18;;;;;;;;;;5410837;26;20111;-60
2024/04/25 05:39:03;;;;;;;9.07;4.85;;;;;;;;;;5413433;26;20032;-60
2024/04/25 05:41:29;;;;;;;11.82;5.20;;;;;;;;;;5421206;26;20023;-60
2024/04/25 05:43:55;;;;;;;7.85;5.03;;;;;;;;;;5406445;26;20036;-59
2024/04/25 05:46:21;;;;;;;8.98;5.30;;;;;;;;;;5406294;26;20745;-60
2024/04/25 05:48:47;;;;;;;11.35;5.47;;;;;;;;;;5409030;26;20439;-60
2024/04/25 05:51:13;;;;;;;10.25;4.97;;;;;;;;;;5404833;26;20041;-59
2024/04/25 05:53:40;;;;;;;12.13;5.70;;;;;;;;;;5406346;26;20044;-59
2024/04/25 05:56:06;;;;;;;8.77;4.97;;;;;;;;;;5410291;26;20066;-60
2024/04/25 05:58:32;;;;;;;7.30;4.65;;;;;;;;;;5409138;26;20058;-60
2024/04/25 06:00:58;;;;;;;6.78;4.50;;;;;;;;;;5409681;26;20040;-60
2024/04/25 06:03:24;;;;;;;7.38;4.55;;;;;;;;;;5409994;26;20051;-60
2024/04/25 06:05:50;;;;;;;7.75;4.03;;;;;;;;;;5410676;26;20042;-59
2024/04/25 06:08:16;;;;;;;6.25;4.45;;;;;;;;;;5410285;26;20495;-59
2024/04/25 06:10:43;;;;;;;14.13;5.65;;;;;;;;;;5410109;26;20032;-60
2024/04/25 06:13:09;;;;;;;12.48;6.20;;;;;;;;;;5407078;26;20046;-60
2024/04/25 06:15:35;;;;;;;11.18;5.20;;;;;;;;;;5411353;26;20047;-59
2024/04/25 06:18:02;;;;;;;15.27;6.18;;;;;;;;;;5406475;26;20039;-59
2024/04/25 06:20:28;;;;;;;7.20;4.63;;;;;;;;;;5409113;26;20039;-60
2024/04/25 06:22:54;;;;;;;10.38;4.32;;;;;;;;;;5410666;26;20036;-59
2024/04/25 06:25:20;;;;;;;7.47;4.20;;;;;;;;;;5413945;26;20036;-60
2024/04/25 06:27:46;;;;;;;6.70;4.13;;;;;;;;;;5436618;21;20023;-63
2024/04/25 06:30:14;;;;;;;9.93;4.10;;;;;;;;;;5418421;26;20075;-63
2024/04/25 06:32:40;;;;;;;6.70;3.85;;;;;;;;;;5420611;26;20043;-63
2024/04/25 06:35:06;;;;;;;6.70;4.65;;;;;;;;;;5389407;26;20036;-63
2024/04/25 06:37:34;;;;;;;7.30;4.45;;;;;;;;;;5419002;26;20039;-64
2024/04/25 06:40:00;;;;;;;9.85;4.40;;;;;;;;;;5410140;26;20489;-64
2024/04/25 06:42:26;;;;;;;8.25;4.10;;;;;;;;;;5399616;26;20039;-62
2024/04/25 06:44:52;;;;;;;8.25;4.10;;;;;;;;;;5404549;26;20032;-62
2024/04/25 06:47:18;;;;;;;6.40;4.38;;;;;;;;;;5408817;26;20063;-62
2024/04/25 06:49:44;;;;;;;8.25;4.85;;;;;;;;;;5407062;26;20566;-62
2024/04/25 06:52:10;;;;;;;8.95;4.97;;;;;;;;;;5405682;26;20039;-62
2024/04/25 06:54:36;;;;;;;8.40;4.60;;;;;;;;;;5405639;26;20036;-62
2024/04/25 06:57:03;;;;;;;10.02;4.15;;;;;;;;;;5407991;26;20031;-63
2024/04/25 06:59:29;;;;;;;5.97;4.07;;;;;;;;;;5409374;26;20032;-63
2024/04/25 07:01:55;;;;;;;6.03;3.83;;;;;;;;;;5404300;26;20031;-64
2024/04/25 07:04:22;;;;;;;8.63;4.82;;;;;;;;;;5406033;26;20039;-64
2024/04/25 07:06:48;;;;;;;8.70;4.80;;;;;;;;;;5412083;26;20389;-64
2024/04/25 07:09:14;;;;;;;10.43;5.13;;;;;;;;;;5404115;26;20027;-63
2024/04/25 07:11:40;;;;;;;6.80;4.53;;;;;;;;;;5409876;26;20040;-63
2024/04/25 07:14:06;;;;;;;7.60;4.55;;;;;;;;;;5410436;26;20043;-63
2024/04/25 07:16:32;;;;;;;9.55;4.90;;;;;;;;;;5413117;26;20047;-63
2024/04/25 07:18:58;;;;;;;6.43;4.30;;;;;;;;;;5417206;26;20027;-63
2024/04/25 07:21:27;;;;;;;6.18;4.07;;;;;;;;;;5418602;26;20511;-63
2024/04/25 07:23:54;;;;;;;8.52;4.28;;;;;;;;;;5413684;26;20423;-64
2024/04/25 07:26:20;;;;;;;7.05;4.55;;;;;;;;;;5418702;26;20479;-63
2024/04/25 07:28:46;;;;;;;6.78;4.10;;;;;;;;;;5435062;26;20076;-64
2024/04/25 07:31:12;;;;;;;8.98;4.05;;;;;;;;;;5452069;26;20027;-64
2024/04/25 07:33:39;;;;;;;8.68;4.20;;;;;;;;;;5455788;26;20286;-63
2024/04/25 07:36:05;;;;;;;5.05;3.75;;;;;;;;;;5422134;26;20031;-63
2024/04/25 07:38:31;;;;;;;6.75;3.53;;;;;;;;;;5455719;26;20506;-64
2024/04/25 07:40:57;;;;;;;8.18;4.40;;;;;;;;;;5438375;26;20035;-63
2024/04/25 07:43:23;;;;;;;9.68;4.13;;;;;;;;;;5438690;26;20019;-64
2024/04/25 07:45:49;;;;;;;6.55;3.55;;;;;;;;;;5431979;26;20380;-64
2024/04/25 07:48:16;;;;;;;23.85;4.85;;;;;;;;;;5447999;26;20038;-64
2024/04/25 07:50:42;;;;;;;6.32;3.67;;;;;;;;;;5444794;26;20036;-63
2024/04/25 07:53:08;;;;;;;8.73;3.80;;;;;;;;;;5413923;26;20013;-63
2024/04/25 07:55:34;;;;;;;7.30;4.13;;;;;;;;;;5442173;26;20395;-63
2024/04/25 07:58:00;;;;;;;7.55;4.30;;;;;;;;;;5444961;26;20507;-62
2024/04/25 08:00:26;;;;;;;8.00;3.78;;;;;;;;;;5451063;26;20022;-63
2024/04/25 08:02:53;;;;;;;7.18;3.35;;;;;;;;;;5443149;26;20047;-63
2024/04/25 08:05:19;;;;;;;11.68;3.70;;;;;;;;;;5447044;26;20023;-63
2024/04/25 08:07:46;;;;;;;10.55;5.18;;;;;;;;;;5444521;26;20022;-63
2024/04/25 08:10:12;;;;;;;7.57;4.00;;;;;;;;;;5390046;26;20491;-64
2024/04/25 08:12:39;;;;;;;6.57;3.35;;;;;;;;;;5445913;26;20401;-62
2024/04/25 08:15:06;;;;;;;8.85;3.25;;;;;;;;;;5447212;26;20027;-62
2024/04/25 08:17:32;;;;;;;6.07;3.65;;;;;;;;;;5402571;26;20039;-63
2024/04/25 08:19:58;;;;;;;6.78;3.53;;;;;;;;;;5456927;26;20456;-63
2024/04/25 08:22:24;;;;;;;5.07;3.70;;;;;;;;;;5455108;26;20030;-63
2024/04/25 08:24:51;;;;;;;4.78;3.40;;;;;;;;;;5448983;26;20031;-63
2024/04/25 08:27:19;;;;;;;6.43;3.38;;;;;;;;;;5458789;26;20022;-63
2024/04/25 08:29:45;;;;;;;6.70;3.90;;;;;;;;;;5447240;26;20031;-63
2024/04/25 08:32:11;;;;;;;5.25;3.60;;;;;;;;;;5422702;26;20030;-63
2024/04/25 08:34:37;;;;;;;5.38;2.90;;;;;;;;;;5426226;26;20042;-63
2024/04/25 08:37:04;;;;;;;6.03;3.00;;;;;;;;;;5418195;26;20497;-62
2024/04/25 08:39:30;;;;;;;7.85;2.83;;;;;;;;;;5451360;26;20449;-63
2024/04/25 08:41:57;;;;;;;8.55;3.35;;;;;;;;;;5445968;26;20031;-63
2024/04/25 08:44:23;;;;;;;4.82;3.00;;;;;;;;;;5444660;26;20532;-63
2024/04/25 08:46:49;;;;;;;5.32;2.50;;;;;;;;;;5409560;26;20395;-63
2024/04/25 08:49:16;;;;;;;4.82;2.85;;;;;;;;;;5415455;26;20526;-63
2024/04/25 08:51:43;;;;;;;7.22;3.33;;;;;;;;;;5445695;26;20054;-65
2024/04/25 08:54:11;;;;;;;6.38;3.53;;;;;;;;;;5431918;26;20365;-63
2024/04/25 08:56:37;;;;;;;4.93;2.95;;;;;;;;;;5443248;26;20403;-63
2024/04/25 08:59:03;;;;;;;5.40;3.17;;;;;;;;;;5448400;26;20026;-63
2024/04/25 09:01:30;;;;;;;3.47;2.47;;;;;;;;;;5419337;26;20030;-63
2024/04/25 09:03:59;;;;;;;5.32;2.45;;;;;;;;;;5450861;26;20047;-63
2024/04/25 09:06:26;;;;;;;6.07;2.72;;;;;;;;;;5410076;26;20003;-64
2024/04/25 09:08:53;;;;;;;4.80;3.47;;;;;;;;;;5454199;26;20039;-63
2024/04/25 09:11:20;;;;;;;5.93;2.53;;;;;;;;;;5452395;26;20022;-63
2024/04/25 09:13:56;;;;;;;5.40;2.90;;;;;;;;;;5451169;26;20043;-63
2024/04/25 09:16:24;;;;;;;3.33;2.63;;;;;;;;;;5419440;26;20031;-64
2024/04/25 09:18:50;;;;;;;6.35;4.18;;;;;;;;;;5422675;26;20027;-63
2024/04/25 09:21:17;;;;;;;6.13;3.42;;;;;;;;;;5446186;26;20026;-63
2024/04/25 09:23:43;;;;;;;3.95;2.70;;;;;;;;;;5450171;26;20344;-63
2024/04/25 09:26:12;;;;;;;3.67;2.45;;;;;;;;;;5446495;26;20051;-63
2024/04/25 09:28:39;;;;;;;4.75;2.30;;;;;;;;;;5438844;26;20035;-63
2024/04/25 09:31:06;;;;;;;5.47;2.45;;;;;;;;;;5443874;26;20027;-63
2024/04/25 09:33:32;;;;;;;5.20;2.58;;;;;;;;;;5437018;26;20043;-63
2024/04/25 09:35:59;;;;;;;3.88;2.35;;;;;;;;;;5426162;26;20486;-64
2024/04/25 09:38:25;;;;;;;3.05;2.40;;;;;;;;;;5421756;26;20034;-64
2024/04/25 09:40:52;;;;;;;4.78;2.60;;;;;;;;;;5415624;26;20385;-63
2024/04/25 09:43:20;;;;;;;3.85;1.80;;;;;;;;;;5442166;26;20039;-63
2024/04/25 09:45:46;;;;;;;2.90;2.30;;;;;;;;;;5436691;26;20035;-62
2024/04/25 09:48:23;;;;;;;4.40;2.10;;;;;;;;;;5418171;26;20031;-62
2024/04/25 09:50:54;;;;;;;3.00;2.20;;;;;;;;;;5447281;26;20038;-63
2024/04/25 09:53:39;;;;;;;4.60;2.22;;;;;;;;;;5449156;26;20019;-63
2024/04/25 09:56:06;;;;;;;3.45;2.20;;;;;;;;;;5416820;26;20057;-63
2024/04/25 09:58:44;;;;;;;4.15;2.95;;;;;;;;;;5450299;26;20460;-63
2024/04/25 10:01:10;;;;;;;3.25;2.22;;;;;;;;;;5447621;26;20039;-63
2024/04/25 10:03:37;;;;;;;6.57;3.22;;;;;;;;;;5422257;26;20033;-64
2024/04/25 10:06:04;;;;;;;2.60;1.95;;;;;;;;;;5452280;26;20042;-64
2024/04/25 10:08:30;;;;;;;3.63;2.00;;;;;;;;;;5446627;26;20105;-64
2024/04/25 10:10:56;;;;;;;2.47;1.83;;;;;;;;;;5453743;26;20030;-63
2024/04/25 10:13:26;;;;;;;2.63;1.60;;;;;;;;;;5448969;26;20027;-63
2024/04/25 10:15:52;;;;;;;3.40;1.92;;;;;;;;;;5411175;26;20038;-63
2024/04/25 10:18:19;;;;;;;3.70;2.17;;;;;;;;;;5453236;26;20023;-64
2024/04/25 10:20:47;;;;;;;2.40;1.67;;;;;;;;;;5446965;26;20383;-64
2024/04/25 10:23:13;;;;;;;3.38;2.17;;;;;;;;;;5418689;26;20073;-63
2024/04/25 10:25:50;;;;;;;2.80;1.92;;;;;;;;;;5448915;26;20026;-67
2024/04/25 10:28:18;;;;;;;5.72;2.33;;;;;;;;;;5443305;26;20031;-64
2024/04/25 10:30:52;;;;;;;3.88;2.00;;;;;;;;;;5412826;26;20003;-64
2024/04/25 10:33:18;;;;;;;3.55;2.10;;;;;;;;;;5395394;26;20047;-64
2024/04/25 10:35:45;;;;;;;4.30;2.53;;;;;;;;;;5447163;26;20027;-64
2024/04/25 10:38:21;;;;;;;3.10;2.00;;;;;;;;;;5444021;26;20031;-63
2024/04/25 10:40:48;;;;;;;3.40;1.92;;;;;;;;;;5443184;26;20054;-65
2024/04/25 10:43:14;;;;;;;2.92;1.85;;;;;;;;;;5444067;26;20034;-65
2024/04/25 10:45:41;;;;;;;2.35;1.65;;;;;;;;;;5413635;26;20027;-62
2024/04/25 10:48:08;;;;;;;3.85;1.77;;;;;;;;;;5445973;26;20030;-63
2024/04/25 10:50:36;;;;;;;4.30;1.77;;;;;;;;;;5419544;26;20026;-64
2024/04/25 10:53:03;;;;;;;2.30;1.60;;;;;;;;;;5444270;26;20031;-63
2024/04/25 10:55:29;;;;;;;4.22;1.90;;;;;;;;;;5415793;26;20508;-64
2024/04/25 10:57:56;;;;;;;2.53;1.50;;;;;;;;;;5444367;26;20031;-63
2024/04/25 11:00:23;;;;;;;2.50;1.45;;;;;;;;;;5445903;26;20597;-64
2024/04/25 11:02:50;;;;;;;3.42;1.50;;;;;;;;;;5411941;26;20034;-63
2024/04/25 11:05:16;;;;;;;3.53;1.50;;;;;;;;;;5415835;26;20034;-64
2024/04/25 11:07:42;;;;;;;2.42;1.30;;;;;;;;;;5453809;26;20027;-64
2024/04/25 11:10:09;;;;;;;2.65;1.55;;;;;;;;;;5460027;26;20486;-65
2024/04/25 11:12:36;;;;;;;3.05;1.48;;;;;;;;;;5434367;26;20440;-63
2024/04/25 11:15:13;;;;;;;2.70;1.80;;;;;;;;;;5443328;26;20042;-63
2024/04/25 11:17:39;;;;;;;3.33;1.77;;;;;;;;;;5453657;26;20023;-64
2024/04/25 11:20:06;;;;;;;4.20;2.13;;;;;;;;;;5444028;26;20039;-64
2024/04/25 11:22:35;;;;;;;3.60;1.65;;;;;;;;;;5419786;26;20662;-64
2024/04/25 11:25:18;;;;;;;4.28;1.92;;;;;;;;;;5452601;26;20033;-64
2024/04/25 11:27:47;;;;;;;2.38;1.50;;;;;;;;;;5450675;26;20039;-64
2024/04/25 11:30:13;;;;;;;3.85;1.83;;;;;;;;;;5411537;26;20002;-64
2024/04/25 11:32:43;;;;;;;1.83;1.55;;;;;;;;;;5449290;26;20511;-64
2024/04/25 11:35:09;;;;;;;3.22;1.70;;;;;;;;;;5445692;26;20101;-64
2024/04/25 11:37:39;;;;;;;4.32;2.03;;;;;;;;;;5443653;26;20038;-63
2024/04/25 11:40:06;;;;;;;3.25;1.73;;;;;;;;;;5445542;26;20030;-64
2024/04/25 11:42:32;;;;;;;4.78;2.33;;;;;;;;;;5417823;26;20054;-63
2024/04/25 11:44:58;;;;;;;3.90;1.80;;;;;;;;;;5385946;26;20449;-64
2024/04/25 11:47:24;;;;;;;4.30;2.65;;;;;;;;;;5444978;26;20031;-63
2024/04/25 11:49:50;;;;;;;5.30;2.50;;;;;;;;;;5447518;26;20038;-63
2024/04/25 11:52:17;;;;;;;5.20;2.53;;;;;;;;;;5441876;26;20039;-63
2024/04/25 11:54:43;;;;;;;3.72;2.00;;;;;;;;;;5450105;26;20023;-63
2024/04/25 11:57:09;;;;;;;2.90;1.92;;;;;;;;;;5418104;26;20050;-63
2024/04/25 11:59:35;;;;;;;3.65;2.20;;;;;;;;;;5442446;26;20039;-64
2024/04/25 12:02:01;;;;;;;3.67;1.98;;;;;;;;;;5437284;26;20038;-64
2024/04/25 12:04:27;;;;;;;7.00;2.28;;;;;;;;;;5446045;26;20054;-63
2024/04/25 12:06:53;;;;;;;3.05;1.90;;;;;;;;;;5447979;26;20031;-64
2024/04/25 12:09:20;;;;;;;5.00;2.08;;;;;;;;;;5446008;26;20035;-64
2024/04/25 12:11:49;;;;;;;3.47;1.83;;;;;;;;;;5426031;26;20038;-64
2024/04/25 12:14:15;;;;;;;3.33;1.92;;;;;;;;;;5444219;26;20494;-63
2024/04/25 12:16:41;;;;;;;3.25;1.73;;;;;;;;;;5393969;26;20042;-64
2024/04/25 12:19:08;;;;;;;2.55;1.73;;;;;;;;;;5428607;26;20003;-63
2024/04/25 12:21:35;;;;;;;2.08;1.50;;;;;;;;;;5454726;26;20514;-64
2024/04/25 12:24:01;;;;;;;2.28;1.60;;;;;;;;;;5420431;26;20035;-65
2024/04/25 12:26:27;;;;;;;4.38;1.92;;;;;;;;;;5444375;26;20038;-64
2024/04/25 12:28:53;;;;;;;3.72;1.73;;;;;;;;;;5397075;26;20021;-63
2024/04/25 12:31:20;;;;;;;2.55;1.55;;;;;;;;;;5423416;26;20027;-63
2024/04/25 12:33:46;;;;;;;2.13;1.52;;;;;;;;;;5419165;26;19998;-66
2024/04/25 12:36:12;;;;;;;2.50;1.70;;;;;;;;;;5444048;26;20027;-62
2024/04/25 12:38:38;;;;;;;2.30;1.40;;;;;;;;;;5428564;26;20120;-64
2024/04/25 12:41:04;;;;;;;2.67;1.80;;;;;;;;;;5433691;26;20003;-65
2024/04/25 12:43:30;;;;;;;3.45;1.92;;;;;;;;;;5426699;26;20003;-65
2024/04/25 12:45:56;;;;;;;3.10;1.50;;;;;;;;;;5440166;26;20498;-64
2024/04/25 12:48:22;;;;;;;2.65;1.60;;;;;;;;;;5439015;26;20050;-64
2024/04/25 12:50:48;;;;;;;2.85;1.60;;;;;;;;;;5445722;26;20401;-64
2024/04/25 12:53:15;;;;;;;3.10;1.70;;;;;;;;;;5447724;26;20047;-64
2024/04/25 12:55:41;;;;;;;2.20;1.67;;;;;;;;;;5415186;26;20373;-64
2024/04/25 12:58:07;;;;;;;2.95;2.20;;;;;;;;;;5412415;26;19999;-64
2024/04/25 13:00:33;;;;;;;2.72;1.70;;;;;;;;;;5437185;26;20031;-64
2024/04/25 13:02:59;;;;;;;3.45;1.60;;;;;;;;;;5428551;26;20013;-65
2024/04/25 13:05:25;;;;;;;2.53;1.52;;;;;;;;;;5441759;26;20017;-63
2024/04/25 13:07:51;;;;;;;2.88;1.92;;;;;;;;;;5440240;26;20025;-64
2024/04/25 13:10:18;;;;;;;2.80;1.80;;;;;;;;;;5449295;26;20040;-64
2024/04/25 13:12:44;;;;;;;2.78;1.90;;;;;;;;;;5413933;26;20002;-64
2024/04/25 13:15:10;;;;;;;2.50;1.60;;;;;;;;;;5442259;26;20007;-64
2024/04/25 13:17:37;;;;;;;2.42;1.80;;;;;;;;;;5438023;26;20039;-66
2024/04/25 13:20:05;;;;;;;3.65;1.95;;;;;;;;;;5437986;26;20039;-66
2024/04/25 13:22:31;;;;;;;4.78;1.80;;;;;;;;;;5409012;26;20038;-64
2024/04/25 13:24:57;;;;;;;2.20;1.40;;;;;;;;;;5448066;26;20034;-65
2024/04/25 13:27:23;;;;;;;2.03;1.52;;;;;;;;;;5444991;26;20042;-65
2024/04/25 13:29:50;;;;;;;3.55;1.90;;;;;;;;;;5443024;26;20514;-63
2024/04/25 13:32:16;;;;;;;2.83;1.70;;;;;;;;;;5448487;26;20375;-64
2024/04/25 13:34:42;;;;;;;3.05;1.80;;;;;;;;;;5413753;26;20026;-64
2024/04/25 13:37:09;;;;;;;2.45;1.30;;;;;;;;;;5412586;26;20695;-65
2024/04/25 13:39:38;;;;;;;3.22;1.58;;;;;;;;;;5442294;26;20031;-65
2024/04/25 13:42:07;;;;;;;3.55;1.63;;;;;;;;;;5413381;26;20038;-64
2024/04/25 13:44:33;;;;;;;1.50;1.30;;;;;;;;;;5418509;26;20038;-65
2024/04/25 13:46:59;;;;;;;3.97;1.80;;;;;;;;;;5417271;26;20039;-64
2024/04/25 13:49:25;;;;;;;4.18;1.48;;;;;;;;;;5444717;26;20032;-64
2024/04/25 13:51:51;;;;;;;2.55;1.17;;;;;;;;;;5450448;26;20034;-64
2024/04/25 13:54:18;;;;;;;3.20;1.50;;;;;;;;;;5416953;26;20017;-64
2024/04/25 13:56:44;;;;;;;1.98;1.50;;;;;;;;;;5446564;26;20035;-65
2024/04/25 13:59:10;;;;;;;3.72;2.00;;;;;;;;;;5450123;26;20062;-64
2024/04/25 14:01:36;;;;;;;3.72;2.42;;;;;;;;;;5446394;26;20055;-64
2024/04/25 14:04:02;;;;;;;7.50;4.25;;;;;;;;;;5421985;26;20101;-64
2024/04/25 14:06:29;;;;;;;7.50;3.17;;;;;;;;;;5440093;26;20030;-63
2024/04/25 14:08:55;;;;;;;4.05;1.75;;;;;;;;;;5445439;26;20042;-64
2024/04/25 14:11:21;;;;;;;2.00;1.30;;;;;;;;;;5454932;26;20043;-64
2024/04/25 14:13:48;;;;;;;1.58;1.48;;;;;;;;;;5426398;26;20022;-64
2024/04/25 14:16:14;;;;;;;3.15;1.70;;;;;;;;;;5443993;26;20035;-64
2024/04/25 14:18:40;;;;;;;2.42;1.60;;;;;;;;;;5444079;26;20051;-64
2024/04/25 14:21:06;;;;;;;2.72;1.60;;;;;;;;;;5425542;26;20038;-64
2024/04/25 14:23:32;;;;;;;1.98;1.60;;;;;;;;;;5448995;26;20497;-63
2024/04/25 14:28:43;;;;;;;1.75;1.40;;;;;;;;;;5427778;26;20023;-64
2024/04/25 14:31:13;;;;;;;3.35;1.67;;;;;;;;;;5379274;26;20003;-64
2024/04/25 14:33:39;;;;;;;2.13;1.63;;;;;;;;;;5445195;26;20117;-63
2024/04/25 14:36:06;;;;;;;1.60;1.35;;;;;;;;;;5444418;26;20003;-64
2024/04/25 14:38:32;;;;;;;3.78;1.60;;;;;;;;;;5413561;26;20038;-62
2024/04/25 14:41:03;;;;;;;3.22;1.25;;;;;;;;;;5415535;26;20034;-62
2024/04/25 14:43:30;;;;;;;4.68;2.20;;;;;;;;;;5446355;26;20027;-63
2024/04/25 14:45:57;;;;;;;2.65;1.67;;;;;;;;;;5444858;26;20057;-63
2024/04/25 14:48:25;;;;;;;3.35;1.48;;;;;;;;;;5443811;26;20042;-64